sensor_id;sensor_type;location;lat;lon;timestamp;temperature;humidity
3348;DHT22;1687;49.540;8.574;2022-12-11T00:01:14;0.20;84.80
3348;DHT22;1687;49.540;8.574;2022-12-11T00:03:42;0.30;85.00
3348;DHT22;1687;49.540;8.574;2022-12-11T00:06:10;0.40;85.30
3348;DHT22;1687;49.540;8.574;2022-12-11T00:08:38;0.40;85.10
3348;DHT22;1687;49.540;8.574;2022-12-11T00:11:07;0.50;85.30
3348;DHT22;1687;49.540;8.574;2022-12-11T00:13:33;0.60;85.60
3348;DHT22;1687;49.540;8.574;2022-12-11T00:15:59;0.60;85.30
3348;DHT22;1687;49.540;8.574;2022-12-11T00:18:25;0.70;85.40
3348;DHT22;1687;49.540;8.574;2022-12-11T00:20:51;0.70;85.10
3348;DHT22;1687;49.540;8.574;2022-12-11T00:23:16;0.70;85.50
3348;DHT22;1687;49.540;8.574;2022-12-11T00:25:43;0.70;85.60
3348;DHT22;1687;49.540;8.574;2022-12-11T00:28:11;0.80;86.10
3348;DHT22;1687;49.540;8.574;2022-12-11T00:30:40;0.80;85.40
3348;DHT22;1687;49.540;8.574;2022-12-11T00:33:07;0.90;85.70
3348;DHT22;1687;49.540;8.574;2022-12-11T00:35:37;0.90;85.70
3348;DHT22;1687;49.540;8.574;2022-12-11T00:38:04;0.90;85.30
3348;DHT22;1687;49.540;8.574;2022-12-11T00:40:33;0.90;85.60
3348;DHT22;1687;49.540;8.574;2022-12-11T00:42:59;0.90;85.50
3348;DHT22;1687;49.540;8.574;2022-12-11T00:45:25;0.90;85.50
3348;DHT22;1687;49.540;8.574;2022-12-11T00:47:51;1.00;85.70
3348;DHT22;1687;49.540;8.574;2022-12-11T00:50:17;1.00;85.90
3348;DHT22;1687;49.540;8.574;2022-12-11T00:52:42;1.00;85.80
3348;DHT22;1687;49.540;8.574;2022-12-11T00:55:08;1.10;86.20
3348;DHT22;1687;49.540;8.574;2022-12-11T00:57:34;1.20;86.20
3348;DHT22;1687;49.540;8.574;2022-12-11T01:00:00;1.30;86.20
3348;DHT22;1687;49.540;8.574;2022-12-11T01:02:26;1.30;86.00
3348;DHT22;1687;49.540;8.574;2022-12-11T01:04:51;1.30;86.10
3348;DHT22;1687;49.540;8.574;2022-12-11T01:07:17;1.30;86.00
3348;DHT22;1687;49.540;8.574;2022-12-11T01:09:43;1.20;84.90
3348;DHT22;1687;49.540;8.574;2022-12-11T01:12:27;1.10;85.00
3348;DHT22;1687;49.540;8.574;2022-12-11T01:14:53;1.10;85.50
3348;DHT22;1687;49.540;8.574;2022-12-11T01:17:19;1.10;85.80
3348;DHT22;1687;49.540;8.574;2022-12-11T01:19:45;1.10;85.70
3348;DHT22;1687;49.540;8.574;2022-12-11T01:22:10;1.10;85.70
3348;DHT22;1687;49.540;8.574;2022-12-11T01:24:36;1.10;85.90
3348;DHT22;1687;49.540;8.574;2022-12-11T01:27:02;1.20;86.10
3348;DHT22;1687;49.540;8.574;2022-12-11T01:29:29;1.10;85.10
3348;DHT22;1687;49.540;8.574;2022-12-11T01:31:55;1.10;85.50
3348;DHT22;1687;49.540;8.574;2022-12-11T01:34:20;1.10;85.60
3348;DHT22;1687;49.540;8.574;2022-12-11T01:36:46;1.10;85.40
3348;DHT22;1687;49.540;8.574;2022-12-11T01:39:12;1.10;85.80
3348;DHT22;1687;49.540;8.574;2022-12-11T01:41:37;1.00;85.60
3348;DHT22;1687;49.540;8.574;2022-12-11T01:44:05;1.00;85.60
3348;DHT22;1687;49.540;8.574;2022-12-11T01:46:41;1.00;85.70
3348;DHT22;1687;49.540;8.574;2022-12-11T01:49:10;1.00;85.80
3348;DHT22;1687;49.540;8.574;2022-12-11T01:51:58;1.10;86.10
3348;DHT22;1687;49.540;8.574;2022-12-11T01:54:28;1.10;86.10
3348;DHT22;1687;49.540;8.574;2022-12-11T01:56:57;1.10;85.60
3348;DHT22;1687;49.540;8.574;2022-12-11T01:59:28;1.00;85.10
3348;DHT22;1687;49.540;8.574;2022-12-11T02:02:07;1.00;86.00
3348;DHT22;1687;49.540;8.574;2022-12-11T02:04:36;1.00;85.60
3348;DHT22;1687;49.540;8.574;2022-12-11T02:07:03;0.90;85.30
3348;DHT22;1687;49.540;8.574;2022-12-11T02:09:32;0.90;85.70
3348;DHT22;1687;49.540;8.574;2022-12-11T02:12:25;0.90;85.80
3348;DHT22;1687;49.540;8.574;2022-12-11T02:15:11;0.90;85.80
3348;DHT22;1687;49.540;8.574;2022-12-11T02:20:44;0.80;85.50
3348;DHT22;1687;49.540;8.574;2022-12-11T02:23:26;0.90;85.90
3348;DHT22;1687;49.540;8.574;2022-12-11T02:29:37;1.00;86.10
3348;DHT22;1687;49.540;8.574;2022-12-11T02:32:20;1.00;86.10
3348;DHT22;1687;49.540;8.574;2022-12-11T02:37:23;1.10;86.20
3348;DHT22;1687;49.540;8.574;2022-12-11T02:39:53;1.10;86.20
3348;DHT22;1687;49.540;8.574;2022-12-11T02:42:20;1.10;86.10
3348;DHT22;1687;49.540;8.574;2022-12-11T02:44:51;1.20;86.20
3348;DHT22;1687;49.540;8.574;2022-12-11T02:47:18;1.20;86.10
3348;DHT22;1687;49.540;8.574;2022-12-11T02:49:48;1.30;86.10
3348;DHT22;1687;49.540;8.574;2022-12-11T02:52:19;1.30;86.10
3348;DHT22;1687;49.540;8.574;2022-12-11T02:54:46;1.20;86.00
3348;DHT22;1687;49.540;8.574;2022-12-11T02:57:16;1.20;86.10
3348;DHT22;1687;49.540;8.574;2022-12-11T02:59:54;1.20;85.90
3348;DHT22;1687;49.540;8.574;2022-12-11T03:02:20;1.20;85.70
3348;DHT22;1687;49.540;8.574;2022-12-11T03:04:46;1.20;86.00
3348;DHT22;1687;49.540;8.574;2022-12-11T03:07:20;1.20;86.00
3348;DHT22;1687;49.540;8.574;2022-12-11T03:09:49;1.30;86.20
3348;DHT22;1687;49.540;8.574;2022-12-11T03:12:30;1.30;86.20
3348;DHT22;1687;49.540;8.574;2022-12-11T03:14:59;1.30;86.30
3348;DHT22;1687;49.540;8.574;2022-12-11T03:17:46;1.40;86.60
3348;DHT22;1687;49.540;8.574;2022-12-11T03:20:49;1.40;86.10
3348;DHT22;1687;49.540;8.574;2022-12-11T03:23:29;1.40;86.20
3348;DHT22;1687;49.540;8.574;2022-12-11T03:26:17;1.40;86.20
3348;DHT22;1687;49.540;8.574;2022-12-11T03:34:17;1.50;86.60
3348;DHT22;1687;49.540;8.574;2022-12-11T03:36:46;1.60;86.90
3348;DHT22;1687;49.540;8.574;2022-12-11T03:39:19;1.70;87.70
3348;DHT22;1687;49.540;8.574;2022-12-11T03:41:47;1.70;86.60
3348;DHT22;1687;49.540;8.574;2022-12-11T03:44:15;1.70;86.60
3348;DHT22;1687;49.540;8.574;2022-12-11T03:46:42;1.60;85.60
3348;DHT22;1687;49.540;8.574;2022-12-11T03:49:16;1.60;86.10
3348;DHT22;1687;49.540;8.574;2022-12-11T03:51:45;1.60;86.30
3348;DHT22;1687;49.540;8.574;2022-12-11T03:54:13;1.60;86.70
3348;DHT22;1687;49.540;8.574;2022-12-11T03:56:40;1.70;86.90
3348;DHT22;1687;49.540;8.574;2022-12-11T03:59:07;1.70;86.50
3348;DHT22;1687;49.540;8.574;2022-12-11T04:01:33;1.70;86.70
3348;DHT22;1687;49.540;8.574;2022-12-11T04:03:59;1.60;86.60
3348;DHT22;1687;49.540;8.574;2022-12-11T04:06:25;1.60;85.80
3348;DHT22;1687;49.540;8.574;2022-12-11T04:08:50;1.60;86.10
3348;DHT22;1687;49.540;8.574;2022-12-11T04:11:16;1.60;86.10
3348;DHT22;1687;49.540;8.574;2022-12-11T04:14:06;1.60;86.60
3348;DHT22;1687;49.540;8.574;2022-12-11T04:16:55;1.60;86.20
3348;DHT22;1687;49.540;8.574;2022-12-11T04:19:22;1.50;85.70
3348;DHT22;1687;49.540;8.574;2022-12-11T04:22:12;1.50;85.90
3348;DHT22;1687;49.540;8.574;2022-12-11T04:24:40;1.40;86.50
3348;DHT22;1687;49.540;8.574;2022-12-11T04:27:05;1.50;86.80
3348;DHT22;1687;49.540;8.574;2022-12-11T04:29:31;1.60;87.50
3348;DHT22;1687;49.540;8.574;2022-12-11T04:31:57;1.70;87.50
3348;DHT22;1687;49.540;8.574;2022-12-11T04:34:23;1.80;87.70
3348;DHT22;1687;49.540;8.574;2022-12-11T04:36:49;1.80;87.70
3348;DHT22;1687;49.540;8.574;2022-12-11T04:39:14;1.80;87.30
3348;DHT22;1687;49.540;8.574;2022-12-11T04:41:40;1.80;86.90
3348;DHT22;1687;49.540;8.574;2022-12-11T04:44:07;1.80;86.90
3348;DHT22;1687;49.540;8.574;2022-12-11T04:46:33;1.70;86.90
3348;DHT22;1687;49.540;8.574;2022-12-11T04:48:59;1.70;87.00
3348;DHT22;1687;49.540;8.574;2022-12-11T04:51:26;1.70;86.70
3348;DHT22;1687;49.540;8.574;2022-12-11T04:53:52;1.60;86.20
3348;DHT22;1687;49.540;8.574;2022-12-11T04:56:18;1.60;87.10
3348;DHT22;1687;49.540;8.574;2022-12-11T04:58:46;1.60;87.60
3348;DHT22;1687;49.540;8.574;2022-12-11T05:01:14;1.70;87.90
3348;DHT22;1687;49.540;8.574;2022-12-11T05:03:42;1.80;88.10
3348;DHT22;1687;49.540;8.574;2022-12-11T05:06:09;1.80;88.00
3348;DHT22;1687;49.540;8.574;2022-12-11T05:08:37;1.80;87.60
3348;DHT22;1687;49.540;8.574;2022-12-11T05:11:06;1.80;87.60
3348;DHT22;1687;49.540;8.574;2022-12-11T05:13:34;1.80;88.10
3348;DHT22;1687;49.540;8.574;2022-12-11T05:16:03;1.80;87.80
3348;DHT22;1687;49.540;8.574;2022-12-11T05:18:30;1.80;87.40
3348;DHT22;1687;49.540;8.574;2022-12-11T05:21:03;1.80;87.60
3348;DHT22;1687;49.540;8.574;2022-12-11T05:23:31;1.70;87.50
3348;DHT22;1687;49.540;8.574;2022-12-11T05:25:59;1.80;87.90
3348;DHT22;1687;49.540;8.574;2022-12-11T05:28:29;1.80;88.10
3348;DHT22;1687;49.540;8.574;2022-12-11T05:30:57;1.80;88.10
3348;DHT22;1687;49.540;8.574;2022-12-11T05:33:24;1.80;88.30
3348;DHT22;1687;49.540;8.574;2022-12-11T05:35:51;1.90;88.00
3348;DHT22;1687;49.540;8.574;2022-12-11T05:38:17;1.80;88.70
3348;DHT22;1687;49.540;8.574;2022-12-11T05:40:42;1.70;86.80
3348;DHT22;1687;49.540;8.574;2022-12-11T05:43:08;1.60;87.40
3348;DHT22;1687;49.540;8.574;2022-12-11T05:45:34;1.50;86.80
3348;DHT22;1687;49.540;8.574;2022-12-11T05:48:00;1.50;87.90
3348;DHT22;1687;49.540;8.574;2022-12-11T05:50:26;1.40;87.70
3348;DHT22;1687;49.540;8.574;2022-12-11T05:52:51;1.30;87.30
3348;DHT22;1687;49.540;8.574;2022-12-11T05:55:17;1.30;87.80
3348;DHT22;1687;49.540;8.574;2022-12-11T05:57:43;1.30;88.00
3348;DHT22;1687;49.540;8.574;2022-12-11T06:00:10;1.30;88.30
3348;DHT22;1687;49.540;8.574;2022-12-11T06:02:36;1.30;87.60
3348;DHT22;1687;49.540;8.574;2022-12-11T06:05:02;1.20;87.70
3348;DHT22;1687;49.540;8.574;2022-12-11T06:07:28;1.20;88.10
3348;DHT22;1687;49.540;8.574;2022-12-11T06:09:53;1.20;87.80
3348;DHT22;1687;49.540;8.574;2022-12-11T06:12:19;1.20;88.00
3348;DHT22;1687;49.540;8.574;2022-12-11T06:14:45;1.10;87.90
3348;DHT22;1687;49.540;8.574;2022-12-11T06:17:10;1.20;88.40
3348;DHT22;1687;49.540;8.574;2022-12-11T06:19:36;1.10;88.20
3348;DHT22;1687;49.540;8.574;2022-12-11T06:22:02;1.10;88.00
3348;DHT22;1687;49.540;8.574;2022-12-11T06:24:28;1.00;87.50
3348;DHT22;1687;49.540;8.574;2022-12-11T06:26:54;0.80;87.00
3348;DHT22;1687;49.540;8.574;2022-12-11T06:29:19;0.70;87.20
3348;DHT22;1687;49.540;8.574;2022-12-11T06:31:45;0.70;87.40
3348;DHT22;1687;49.540;8.574;2022-12-11T06:34:11;0.70;88.50
3348;DHT22;1687;49.540;8.574;2022-12-11T06:36:38;0.80;88.50
3348;DHT22;1687;49.540;8.574;2022-12-11T06:39:04;0.70;88.30
3348;DHT22;1687;49.540;8.574;2022-12-11T06:41:30;0.70;87.80
3348;DHT22;1687;49.540;8.574;2022-12-11T06:43:55;0.70;88.50
3348;DHT22;1687;49.540;8.574;2022-12-11T06:46:21;0.70;88.00
3348;DHT22;1687;49.540;8.574;2022-12-11T06:48:47;0.70;89.20
3348;DHT22;1687;49.540;8.574;2022-12-11T06:51:19;0.80;89.30
3348;DHT22;1687;49.540;8.574;2022-12-11T06:53:53;0.90;89.10
3348;DHT22;1687;49.540;8.574;2022-12-11T06:56:21;0.90;88.40
3348;DHT22;1687;49.540;8.574;2022-12-11T06:58:47;0.90;89.00
3348;DHT22;1687;49.540;8.574;2022-12-11T07:01:24;1.00;89.80
3348;DHT22;1687;49.540;8.574;2022-12-11T07:03:52;0.90;88.50
3348;DHT22;1687;49.540;8.574;2022-12-11T07:06:23;1.00;90.00
3348;DHT22;1687;49.540;8.574;2022-12-11T07:08:50;1.10;89.40
3348;DHT22;1687;49.540;8.574;2022-12-11T07:11:17;0.90;88.70
3348;DHT22;1687;49.540;8.574;2022-12-11T07:13:44;1.00;89.40
3348;DHT22;1687;49.540;8.574;2022-12-11T07:16:11;1.00;89.10
3348;DHT22;1687;49.540;8.574;2022-12-11T07:18:39;0.80;88.80
3348;DHT22;1687;49.540;8.574;2022-12-11T07:21:07;0.70;88.60
3348;DHT22;1687;49.540;8.574;2022-12-11T07:23:34;0.60;88.70
3348;DHT22;1687;49.540;8.574;2022-12-11T07:26:04;0.60;88.80
3348;DHT22;1687;49.540;8.574;2022-12-11T07:28:31;0.50;88.50
3348;DHT22;1687;49.540;8.574;2022-12-11T07:30:57;0.40;89.10
3348;DHT22;1687;49.540;8.574;2022-12-11T07:33:23;0.40;89.70
3348;DHT22;1687;49.540;8.574;2022-12-11T07:35:49;0.50;90.20
3348;DHT22;1687;49.540;8.574;2022-12-11T07:38:14;0.60;90.20
3348;DHT22;1687;49.540;8.574;2022-12-11T07:40:40;0.70;90.20
3348;DHT22;1687;49.540;8.574;2022-12-11T07:43:06;0.60;89.50
3348;DHT22;1687;49.540;8.574;2022-12-11T07:45:31;0.50;88.90
3348;DHT22;1687;49.540;8.574;2022-12-11T07:47:57;0.50;89.70
3348;DHT22;1687;49.540;8.574;2022-12-11T07:50:23;0.50;90.10
3348;DHT22;1687;49.540;8.574;2022-12-11T07:52:49;0.60;90.10
3348;DHT22;1687;49.540;8.574;2022-12-11T07:55:14;0.70;90.30
3348;DHT22;1687;49.540;8.574;2022-12-11T07:57:40;0.70;90.10
3348;DHT22;1687;49.540;8.574;2022-12-11T08:00:06;0.70;90.30
3348;DHT22;1687;49.540;8.574;2022-12-11T08:02:33;0.80;90.30
3348;DHT22;1687;49.540;8.574;2022-12-11T08:04:58;0.90;90.60
3348;DHT22;1687;49.540;8.574;2022-12-11T08:07:24;1.10;90.90
3348;DHT22;1687;49.540;8.574;2022-12-11T08:09:49;1.30;90.90
3348;DHT22;1687;49.540;8.574;2022-12-11T08:12:15;1.40;90.80
3348;DHT22;1687;49.540;8.574;2022-12-11T08:14:41;1.50;90.70
3348;DHT22;1687;49.540;8.574;2022-12-11T08:17:06;1.60;90.50
3348;DHT22;1687;49.540;8.574;2022-12-11T08:19:32;1.60;90.60
3348;DHT22;1687;49.540;8.574;2022-12-11T08:21:58;1.50;90.20
3348;DHT22;1687;49.540;8.574;2022-12-11T08:24:23;1.60;90.70
3348;DHT22;1687;49.540;8.574;2022-12-11T08:26:49;1.60;90.50
3348;DHT22;1687;49.540;8.574;2022-12-11T08:29:15;1.60;90.60
3348;DHT22;1687;49.540;8.574;2022-12-11T08:31:41;1.60;90.20
3348;DHT22;1687;49.540;8.574;2022-12-11T08:34:07;1.70;90.60
3348;DHT22;1687;49.540;8.574;2022-12-11T08:36:32;1.70;90.60
3348;DHT22;1687;49.540;8.574;2022-12-11T08:38:59;1.80;91.10
3348;DHT22;1687;49.540;8.574;2022-12-11T08:41:27;1.80;90.50
3348;DHT22;1687;49.540;8.574;2022-12-11T08:43:54;1.70;90.20
3348;DHT22;1687;49.540;8.574;2022-12-11T08:46:24;1.80;91.00
3348;DHT22;1687;49.540;8.574;2022-12-11T08:48:51;1.90;90.90
3348;DHT22;1687;49.540;8.574;2022-12-11T08:51:21;1.90;90.70
3348;DHT22;1687;49.540;8.574;2022-12-11T08:53:49;2.00;90.90
3348;DHT22;1687;49.540;8.574;2022-12-11T08:56:18;2.00;90.70
3348;DHT22;1687;49.540;8.574;2022-12-11T08:58:45;1.80;90.10
3348;DHT22;1687;49.540;8.574;2022-12-11T09:01:23;1.60;90.10
3348;DHT22;1687;49.540;8.574;2022-12-11T09:03:50;1.60;90.40
3348;DHT22;1687;49.540;8.574;2022-12-11T09:06:20;1.50;90.30
3348;DHT22;1687;49.540;8.574;2022-12-11T09:08:47;1.50;90.60
3348;DHT22;1687;49.540;8.574;2022-12-11T09:11:17;1.60;91.00
3348;DHT22;1687;49.540;8.574;2022-12-11T09:13:45;1.80;91.10
3348;DHT22;1687;49.540;8.574;2022-12-11T09:16:15;1.90;90.90
3348;DHT22;1687;49.540;8.574;2022-12-11T09:18:44;1.90;90.90
3348;DHT22;1687;49.540;8.574;2022-12-11T09:21:13;1.80;90.40
3348;DHT22;1687;49.540;8.574;2022-12-11T09:23:41;1.80;90.80
3348;DHT22;1687;49.540;8.574;2022-12-11T09:26:09;1.60;90.10
3348;DHT22;1687;49.540;8.574;2022-12-11T09:28:38;1.70;90.70
3348;DHT22;1687;49.540;8.574;2022-12-11T09:31:09;1.70;90.60
3348;DHT22;1687;49.540;8.574;2022-12-11T09:33:36;1.90;90.90
3348;DHT22;1687;49.540;8.574;2022-12-11T09:36:02;1.90;90.50
3348;DHT22;1687;49.540;8.574;2022-12-11T09:38:29;1.80;90.40
3348;DHT22;1687;49.540;8.574;2022-12-11T09:40:55;1.70;90.20
3348;DHT22;1687;49.540;8.574;2022-12-11T09:43:41;1.70;90.60
3348;DHT22;1687;49.540;8.574;2022-12-11T09:46:12;1.70;90.50
3348;DHT22;1687;49.540;8.574;2022-12-11T09:48:42;1.70;90.30
3348;DHT22;1687;49.540;8.574;2022-12-11T09:51:24;1.50;90.00
3348;DHT22;1687;49.540;8.574;2022-12-11T09:54:11;1.50;90.40
3348;DHT22;1687;49.540;8.574;2022-12-11T09:59:43;1.60;90.70
3348;DHT22;1687;49.540;8.574;2022-12-11T10:02:31;1.70;91.10
3348;DHT22;1687;49.540;8.574;2022-12-11T10:05:11;1.90;90.90
3348;DHT22;1687;49.540;8.574;2022-12-11T10:07:51;2.00;91.30
3348;DHT22;1687;49.540;8.574;2022-12-11T10:10:35;2.10;91.00
3348;DHT22;1687;49.540;8.574;2022-12-11T10:13:20;2.20;91.10
3348;DHT22;1687;49.540;8.574;2022-12-11T10:15:59;2.40;91.50
3348;DHT22;1687;49.540;8.574;2022-12-11T10:18:30;2.50;91.30
3348;DHT22;1687;49.540;8.574;2022-12-11T10:21:00;2.50;91.30
3348;DHT22;1687;49.540;8.574;2022-12-11T10:23:33;2.60;91.30
3348;DHT22;1687;49.540;8.574;2022-12-11T10:26:19;2.60;91.20
3348;DHT22;1687;49.540;8.574;2022-12-11T10:28:46;2.70;91.20
3348;DHT22;1687;49.540;8.574;2022-12-11T10:31:17;2.70;91.20
3348;DHT22;1687;49.540;8.574;2022-12-11T10:33:58;2.70;90.80
3348;DHT22;1687;49.540;8.574;2022-12-11T10:36:36;2.70;90.70
3348;DHT22;1687;49.540;8.574;2022-12-11T10:39:19;2.60;90.60
3348;DHT22;1687;49.540;8.574;2022-12-11T10:41:48;2.60;91.10
3348;DHT22;1687;49.540;8.574;2022-12-11T10:44:23;2.70;91.10
3348;DHT22;1687;49.540;8.574;2022-12-11T10:47:10;2.80;91.10
3348;DHT22;1687;49.540;8.574;2022-12-11T10:49:43;2.80;90.90
3348;DHT22;1687;49.540;8.574;2022-12-11T10:52:22;2.80;90.90
3348;DHT22;1687;49.540;8.574;2022-12-11T10:55:06;2.90;90.70
3348;DHT22;1687;49.540;8.574;2022-12-11T10:57:36;2.90;90.60
3348;DHT22;1687;49.540;8.574;2022-12-11T11:00:06;2.80;90.40
3348;DHT22;1687;49.540;8.574;2022-12-11T11:02:36;2.90;90.90
3348;DHT22;1687;49.540;8.574;2022-12-11T11:05:35;3.00;91.10
3348;DHT22;1687;49.540;8.574;2022-12-11T11:08:18;3.20;90.90
3348;DHT22;1687;49.540;8.574;2022-12-11T11:10:57;3.40;91.40
3348;DHT22;1687;49.540;8.574;2022-12-11T11:13:25;3.50;91.20
3348;DHT22;1687;49.540;8.574;2022-12-11T11:16:01;3.60;91.20
3348;DHT22;1687;49.540;8.574;2022-12-11T11:18:29;3.80;91.20
3348;DHT22;1687;49.540;8.574;2022-12-11T11:20:56;3.70;90.20
3348;DHT22;1687;49.540;8.574;2022-12-11T11:23:23;3.50;90.20
3348;DHT22;1687;49.540;8.574;2022-12-11T11:25:59;3.50;90.40
3348;DHT22;1687;49.540;8.574;2022-12-11T11:28:39;3.40;90.10
3348;DHT22;1687;49.540;8.574;2022-12-11T11:31:11;3.50;90.40
3348;DHT22;1687;49.540;8.574;2022-12-11T11:33:56;3.50;90.80
3348;DHT22;1687;49.540;8.574;2022-12-11T11:36:27;3.70;91.00
3348;DHT22;1687;49.540;8.574;2022-12-11T11:39:15;3.80;90.70
3348;DHT22;1687;49.540;8.574;2022-12-11T11:42:14;3.60;89.10
3348;DHT22;1687;49.540;8.574;2022-12-11T11:45:01;3.60;90.50
3348;DHT22;1687;49.540;8.574;2022-12-11T11:47:35;3.80;91.00
3348;DHT22;1687;49.540;8.574;2022-12-11T11:50:15;3.80;90.30
3348;DHT22;1687;49.540;8.574;2022-12-11T11:52:51;3.70;90.00
3348;DHT22;1687;49.540;8.574;2022-12-11T11:58:43;3.70;90.30
3348;DHT22;1687;49.540;8.574;2022-12-11T12:01:16;3.70;90.30
3348;DHT22;1687;49.540;8.574;2022-12-11T12:03:44;3.70;90.10
3348;DHT22;1687;49.540;8.574;2022-12-11T12:06:24;3.70;90.00
3348;DHT22;1687;49.540;8.574;2022-12-11T12:12:12;3.60;89.60
3348;DHT22;1687;49.540;8.574;2022-12-11T12:18:39;3.60;90.30
3348;DHT22;1687;49.540;8.574;2022-12-11T12:21:37;3.70;90.30
3348;DHT22;1687;49.540;8.574;2022-12-11T12:24:32;3.80;90.40
3348;DHT22;1687;49.540;8.574;2022-12-11T12:30:13;3.80;89.10
3348;DHT22;1687;49.540;8.574;2022-12-11T12:35:54;3.60;88.70
3348;DHT22;1687;49.540;8.574;2022-12-11T12:39:04;3.50;89.50
3348;DHT22;1687;49.540;8.574;2022-12-11T12:44:21;3.70;90.10
3348;DHT22;1687;49.540;8.574;2022-12-11T12:46:54;3.70;89.60
3348;DHT22;1687;49.540;8.574;2022-12-11T12:51:58;3.50;88.30
3348;DHT22;1687;49.540;8.574;2022-12-11T12:54:26;3.50;89.20
3348;DHT22;1687;49.540;8.574;2022-12-11T12:56:54;3.70;90.20
3348;DHT22;1687;49.540;8.574;2022-12-11T12:59:22;3.90;90.30
3348;DHT22;1687;49.540;8.574;2022-12-11T13:01:53;3.90;89.60
3348;DHT22;1687;49.540;8.574;2022-12-11T13:04:28;3.90;88.80
3348;DHT22;1687;49.540;8.574;2022-12-11T13:09:59;3.70;88.20
3348;DHT22;1687;49.540;8.574;2022-12-11T13:12:42;3.80;89.70
3348;DHT22;1687;49.540;8.574;2022-12-11T13:15:32;3.80;88.70
3348;DHT22;1687;49.540;8.574;2022-12-11T13:18:00;3.90;89.00
3348;DHT22;1687;49.540;8.574;2022-12-11T13:20:31;3.90;88.80
3348;DHT22;1687;49.540;8.574;2022-12-11T13:23:19;4.00;89.50
3348;DHT22;1687;49.540;8.574;2022-12-11T13:25:59;4.00;88.90
3348;DHT22;1687;49.540;8.574;2022-12-11T13:33:38;4.10;89.20
3348;DHT22;1687;49.540;8.574;2022-12-11T13:38:37;4.10;88.80
3348;DHT22;1687;49.540;8.574;2022-12-11T13:41:12;4.00;88.30
3348;DHT22;1687;49.540;8.574;2022-12-11T13:43:40;4.00;88.40
3348;DHT22;1687;49.540;8.574;2022-12-11T13:46:08;4.10;88.90
3348;DHT22;1687;49.540;8.574;2022-12-11T13:51:54;4.20;88.90
3348;DHT22;1687;49.540;8.574;2022-12-11T13:54:22;3.90;86.30
3348;DHT22;1687;49.540;8.574;2022-12-11T13:57:14;3.70;86.00
3348;DHT22;1687;49.540;8.574;2022-12-11T13:59:53;3.60;86.50
3348;DHT22;1687;49.540;8.574;2022-12-11T14:02:30;3.70;88.20
3348;DHT22;1687;49.540;8.574;2022-12-11T14:05:07;3.80;87.50
3348;DHT22;1687;49.540;8.574;2022-12-11T14:07:57;3.80;87.50
3348;DHT22;1687;49.540;8.574;2022-12-11T14:10:28;3.70;86.80
3348;DHT22;1687;49.540;8.574;2022-12-11T14:15:24;3.80;86.70
3348;DHT22;1687;49.540;8.574;2022-12-11T14:17:51;3.70;87.30
3348;DHT22;1687;49.540;8.574;2022-12-11T14:20:29;3.80;87.00
3348;DHT22;1687;49.540;8.574;2022-12-11T14:23:19;3.80;87.00
3348;DHT22;1687;49.540;8.574;2022-12-11T14:26:17;3.80;87.50
3348;DHT22;1687;49.540;8.574;2022-12-11T14:28:51;3.80;86.00
3348;DHT22;1687;49.540;8.574;2022-12-11T14:34:07;3.70;87.10
3348;DHT22;1687;49.540;8.574;2022-12-11T14:36:38;3.70;86.90
3348;DHT22;1687;49.540;8.574;2022-12-11T14:39:25;3.70;86.40
3348;DHT22;1687;49.540;8.574;2022-12-11T14:42:03;3.60;85.90
3348;DHT22;1687;49.540;8.574;2022-12-11T14:44:49;3.60;85.90
3348;DHT22;1687;49.540;8.574;2022-12-11T14:47:22;3.60;86.80
3348;DHT22;1687;49.540;8.574;2022-12-11T14:49:55;3.60;85.90
3348;DHT22;1687;49.540;8.574;2022-12-11T14:52:32;3.50;85.40
3348;DHT22;1687;49.540;8.574;2022-12-11T14:55:25;3.40;86.30
3348;DHT22;1687;49.540;8.574;2022-12-11T14:57:58;3.50;86.60
3348;DHT22;1687;49.540;8.574;2022-12-11T15:00:30;3.50;86.30
3348;DHT22;1687;49.540;8.574;2022-12-11T15:03:18;3.50;85.80
3348;DHT22;1687;49.540;8.574;2022-12-11T15:05:51;3.40;85.50
3348;DHT22;1687;49.540;8.574;2022-12-11T15:08:21;3.40;86.40
3348;DHT22;1687;49.540;8.574;2022-12-11T15:13:28;3.50;86.30
3348;DHT22;1687;49.540;8.574;2022-12-11T15:15:55;3.60;86.50
3348;DHT22;1687;49.540;8.574;2022-12-11T15:18:28;3.50;85.50
3348;DHT22;1687;49.540;8.574;2022-12-11T15:21:04;3.40;85.80
3348;DHT22;1687;49.540;8.574;2022-12-11T15:23:50;3.40;86.00
3348;DHT22;1687;49.540;8.574;2022-12-11T15:26:33;3.40;86.00
3348;DHT22;1687;49.540;8.574;2022-12-11T15:29:05;3.40;86.00
3348;DHT22;1687;49.540;8.574;2022-12-11T15:34:45;3.30;85.70
3348;DHT22;1687;49.540;8.574;2022-12-11T15:37:33;3.40;85.80
3348;DHT22;1687;49.540;8.574;2022-12-11T15:40:04;3.30;85.70
3348;DHT22;1687;49.540;8.574;2022-12-11T15:42:33;3.30;85.80
3348;DHT22;1687;49.540;8.574;2022-12-11T15:45:00;3.30;86.10
3348;DHT22;1687;49.540;8.574;2022-12-11T15:47:29;3.40;86.10
3348;DHT22;1687;49.540;8.574;2022-12-11T15:50:17;3.40;86.10
3348;DHT22;1687;49.540;8.574;2022-12-11T15:52:46;3.40;85.90
3348;DHT22;1687;49.540;8.574;2022-12-11T15:55:13;3.50;86.20
3348;DHT22;1687;49.540;8.574;2022-12-11T15:57:44;3.50;86.10
3348;DHT22;1687;49.540;8.574;2022-12-11T16:00:16;3.50;86.00
3348;DHT22;1687;49.540;8.574;2022-12-11T16:02:43;3.50;85.60
3348;DHT22;1687;49.540;8.574;2022-12-11T16:05:09;3.50;85.80
3348;DHT22;1687;49.540;8.574;2022-12-11T16:07:35;3.50;86.00
3348;DHT22;1687;49.540;8.574;2022-12-11T16:10:01;3.50;85.80
3348;DHT22;1687;49.540;8.574;2022-12-11T16:12:27;3.50;85.90
3348;DHT22;1687;49.540;8.574;2022-12-11T16:14:52;3.50;85.80
3348;DHT22;1687;49.540;8.574;2022-12-11T16:17:18;3.40;86.00
3348;DHT22;1687;49.540;8.574;2022-12-11T16:19:44;3.40;85.70
3348;DHT22;1687;49.540;8.574;2022-12-11T16:22:11;3.40;85.70
3348;DHT22;1687;49.540;8.574;2022-12-11T16:24:38;3.50;86.10
3348;DHT22;1687;49.540;8.574;2022-12-11T16:27:05;3.50;85.70
3348;DHT22;1687;49.540;8.574;2022-12-11T16:29:40;3.50;85.90
3348;DHT22;1687;49.540;8.574;2022-12-11T16:32:06;3.50;86.00
3348;DHT22;1687;49.540;8.574;2022-12-11T16:34:33;3.60;86.10
3348;DHT22;1687;49.540;8.574;2022-12-11T16:37:00;3.60;86.00
3348;DHT22;1687;49.540;8.574;2022-12-11T16:39:26;3.60;86.00
3348;DHT22;1687;49.540;8.574;2022-12-11T16:41:52;3.60;85.90
3348;DHT22;1687;49.540;8.574;2022-12-11T16:44:19;3.60;85.90
3348;DHT22;1687;49.540;8.574;2022-12-11T16:46:46;3.60;85.80
3348;DHT22;1687;49.540;8.574;2022-12-11T16:49:12;3.50;85.70
3348;DHT22;1687;49.540;8.574;2022-12-11T16:51:38;3.50;85.80
3348;DHT22;1687;49.540;8.574;2022-12-11T16:54:03;3.50;85.60
3348;DHT22;1687;49.540;8.574;2022-12-11T16:56:29;3.50;85.90
3348;DHT22;1687;49.540;8.574;2022-12-11T16:58:55;3.60;85.90
3348;DHT22;1687;49.540;8.574;2022-12-11T17:01:21;3.60;85.90
3348;DHT22;1687;49.540;8.574;2022-12-11T17:03:46;3.50;85.50
3348;DHT22;1687;49.540;8.574;2022-12-11T17:06:15;3.50;85.50
3348;DHT22;1687;49.540;8.574;2022-12-11T17:08:42;3.50;85.60
3348;DHT22;1687;49.540;8.574;2022-12-11T17:11:11;3.40;85.30
3348;DHT22;1687;49.540;8.574;2022-12-11T17:13:39;3.40;85.70
3348;DHT22;1687;49.540;8.574;2022-12-11T17:16:06;3.40;86.10
3348;DHT22;1687;49.540;8.574;2022-12-11T17:18:33;3.40;85.60
3348;DHT22;1687;49.540;8.574;2022-12-11T17:20:59;3.20;84.10
3348;DHT22;1687;49.540;8.574;2022-12-11T17:23:31;3.10;84.80
3348;DHT22;1687;49.540;8.574;2022-12-11T17:25:56;3.10;85.70
3348;DHT22;1687;49.540;8.574;2022-12-11T17:28:22;3.20;86.20
3348;DHT22;1687;49.540;8.574;2022-12-11T17:30:48;3.30;85.90
3348;DHT22;1687;49.540;8.574;2022-12-11T17:33:15;3.30;86.00
3348;DHT22;1687;49.540;8.574;2022-12-11T17:35:40;3.30;85.80
3348;DHT22;1687;49.540;8.574;2022-12-11T17:38:06;3.30;85.60
3348;DHT22;1687;49.540;8.574;2022-12-11T17:40:32;3.30;85.90
3348;DHT22;1687;49.540;8.574;2022-12-11T17:42:58;3.40;86.30
3348;DHT22;1687;49.540;8.574;2022-12-11T17:45:23;3.40;86.40